sensor_id;sensor_type;location;lat;lon;timestamp;pressure;altitude;pressure_sealevel;temperature;humidity
11936;BME280;6027;48.576;9.180;2023-07-31T00:02:18;96975.38;;;14.99;100.00
11936;BME280;6027;48.576;9.180;2023-07-31T00:04:44;96983.38;;;14.93;100.00
11936;BME280;6027;48.576;9.180;2023-07-31T00:07:09;96974.75;;;14.91;100.00
11936;BME280;6027;48.576;9.180;2023-07-31T00:09:35;96974.75;;;14.91;100.00
11936;BME280;6027;48.576;9.180;2023-07-31T00:12:00;96978.44;;;14.96;100.00
11936;BME280;6027;48.576;9.180;2023-07-31T00:14:25;96977.63;;;14.89;100.00
11936;BME280;6027;48.576;9.180;2023-07-31T00:16:51;96979.47;;;14.89;100.00
11936;BME280;6027;48.576;9.180;2023-07-31T00:19:16;96976.41;;;14.78;100.00
11936;BME280;6027;48.576;9.180;2023-07-31T00:21:43;96976.00;;;14.81;100.00
11936;BME280;6027;48.576;9.180;2023-07-31T00:24:09;96979.47;;;14.82;100.00
11936;BME280;6027;48.576;9.180;2023-07-31T00:26:35;96977.84;;;14.81;100.00
11936;BME280;6027;48.576;9.180;2023-07-31T00:29:00;96970.47;;;14.70;100.00
11936;BME280;6027;48.576;9.180;2023-07-31T00:31:26;96987.69;;;14.74;100.00
11936;BME280;6027;48.576;9.180;2023-07-31T00:33:52;96984.81;;;14.69;100.00
11936;BME280;6027;48.576;9.180;2023-07-31T00:36:17;96984.81;;;14.69;100.00
11936;BME280;6027;48.576;9.180;2023-07-31T00:38:43;96981.13;;;14.70;100.00
11936;BME280;6027;48.576;9.180;2023-07-31T00:41:09;96990.34;;;14.61;100.00
11936;BME280;6027;48.576;9.180;2023-07-31T00:43:34;96991.38;;;14.60;100.00
11936;BME280;6027;48.576;9.180;2023-07-31T00:46:00;96988.31;;;14.56;100.00
11936;BME280;6027;48.576;9.180;2023-07-31T00:48:26;96989.31;;;14.55;100.00
11936;BME280;6027;48.576;9.180;2023-07-31T00:50:51;96985.00;;;14.47;100.00
11936;BME280;6027;48.576;9.180;2023-07-31T00:53:17;96970.06;;;14.53;100.00
11936;BME280;6027;48.576;9.180;2023-07-31T00:55:42;96972.72;;;14.60;100.00
11936;BME280;6027;48.576;9.180;2023-07-31T00:58:08;96973.75;;;14.59;100.00
11936;BME280;6027;48.576;9.180;2023-07-31T01:00:33;96969.22;;;14.52;100.00
11936;BME280;6027;48.576;9.180;2023-07-31T01:02:59;96970.28;;;14.58;100.00
11936;BME280;6027;48.576;9.180;2023-07-31T01:05:33;96954.25;;;14.38;100.00
11936;BME280;6027;48.576;9.180;2023-07-31T01:08:25;96974.16;;;14.49;100.00
11936;BME280;6027;48.576;9.180;2023-07-31T01:10:58;96973.72;;;14.45;100.00
11936;BME280;6027;48.576;9.180;2023-07-31T01:13:26;96971.44;;;14.36;100.00
11936;BME280;6027;48.576;9.180;2023-07-31T01:15:51;96973.69;;;14.32;100.00
11936;BME280;6027;48.576;9.180;2023-07-31T01:18:17;96963.25;;;14.31;100.00
11936;BME280;6027;48.576;9.180;2023-07-31T01:20:42;96956.88;;;14.25;100.00
11936;BME280;6027;48.576;9.180;2023-07-31T01:28:39;96946.22;;;14.12;100.00
11936;BME280;6027;48.576;9.180;2023-07-31T01:31:07;96955.81;;;14.06;100.00
11936;BME280;6027;48.576;9.180;2023-07-31T01:33:36;96947.25;;;14.04;100.00
11936;BME280;6027;48.576;9.180;2023-07-31T01:36:02;96940.88;;;13.99;100.00
11936;BME280;6027;48.576;9.180;2023-07-31T01:38:27;96938.00;;;13.94;100.00
11936;BME280;6027;48.576;9.180;2023-07-31T01:40:53;96938.00;;;13.94;100.00
11936;BME280;6027;48.576;9.180;2023-07-31T01:43:20;96929.38;;;13.92;100.00
11936;BME280;6027;48.576;9.180;2023-07-31T01:45:45;96933.06;;;13.91;100.00
11936;BME280;6027;48.576;9.180;2023-07-31T01:48:10;96942.88;;;13.90;100.00
11936;BME280;6027;48.576;9.180;2023-07-31T01:50:36;96938.78;;;13.88;100.00
11936;BME280;6027;48.576;9.180;2023-07-31T01:53:01;96936.75;;;13.83;100.00
11936;BME280;6027;48.576;9.180;2023-07-31T01:55:26;96929.50;;;13.57;100.00
11936;BME280;6027;48.576;9.180;2023-07-31T01:57:52;96924.53;;;13.47;100.00
11936;BME280;6027;48.576;9.180;2023-07-31T02:00:18;96926.59;;;13.52;100.00
11936;BME280;6027;48.576;9.180;2023-07-31T02:02:43;96930.91;;;13.46;100.00
11936;BME280;6027;48.576;9.180;2023-07-31T02:05:09;96928.78;;;13.35;100.00
11936;BME280;6027;48.576;9.180;2023-07-31T02:07:34;96926.91;;;13.23;100.00
11936;BME280;6027;48.576;9.180;2023-07-31T02:10:00;96927.53;;;13.25;100.00
11936;BME280;6027;48.576;9.180;2023-07-31T02:12:25;96919.59;;;13.38;100.00
11936;BME280;6027;48.576;9.180;2023-07-31T02:14:51;96910.38;;;13.27;100.00
11936;BME280;6027;48.576;9.180;2023-07-31T02:17:16;96922.03;;;13.33;100.00
11936;BME280;6027;48.576;9.180;2023-07-31T02:19:42;96904.81;;;13.29;100.00
11936;BME280;6027;48.576;9.180;2023-07-31T02:22:07;96901.00;;;13.38;100.00
11936;BME280;6027;48.576;9.180;2023-07-31T02:24:33;96898.72;;;13.35;100.00
11936;BME280;6027;48.576;9.180;2023-07-31T02:26:58;96894.88;;;13.44;100.00
11936;BME280;6027;48.576;9.180;2023-07-31T02:29:23;96890.38;;;13.51;100.00
11936;BME280;6027;48.576;9.180;2023-07-31T02:31:49;96884.66;;;13.47;100.00
11936;BME280;6027;48.576;9.180;2023-07-31T02:34:14;96894.88;;;13.51;100.00
11936;BME280;6027;48.576;9.180;2023-07-31T02:36:40;96890.63;;;13.56;100.00
11936;BME280;6027;48.576;9.180;2023-07-31T02:39:05;96885.91;;;13.58;100.00
11936;BME280;6027;48.576;9.180;2023-07-31T02:41:30;96890.66;;;13.63;100.00
11936;BME280;6027;48.576;9.180;2023-07-31T02:43:56;96894.94;;;13.70;100.00
11936;BME280;6027;48.576;9.180;2023-07-31T02:46:21;96891.47;;;13.70;100.00
11936;BME280;6027;48.576;9.180;2023-07-31T02:48:49;96894.94;;;13.70;100.00
11936;BME280;6027;48.576;9.180;2023-07-31T02:51:15;96890.00;;;13.54;100.00
11936;BME280;6027;48.576;9.180;2023-07-31T02:53:40;96893.69;;;13.60;100.00
11936;BME280;6027;48.576;9.180;2023-07-31T02:56:06;96894.91;;;13.57;100.00
11936;BME280;6027;48.576;9.180;2023-07-31T02:58:31;96889.81;;;13.62;100.00
11936;BME280;6027;48.576;9.180;2023-07-31T03:00:58;96891.25;;;13.58;100.00
11936;BME280;6027;48.576;9.180;2023-07-31T03:03:24;96883.06;;;13.66;100.00
11936;BME280;6027;48.576;9.180;2023-07-31T03:05:49;96878.78;;;13.65;100.00
11936;BME280;6027;48.576;9.180;2023-07-31T03:08:15;96882.88;;;13.61;100.00
11936;BME280;6027;48.576;9.180;2023-07-31T03:10:40;96873.25;;;13.60;100.00
11936;BME280;6027;48.576;9.180;2023-07-31T03:13:06;96873.03;;;13.62;100.00
11936;BME280;6027;48.576;9.180;2023-07-31T03:15:32;96876.72;;;13.61;100.00
11936;BME280;6027;48.576;9.180;2023-07-31T03:17:57;96874.06;;;13.67;100.00
11936;BME280;6027;48.576;9.180;2023-07-31T03:20:23;96875.06;;;13.53;100.00
11936;BME280;6027;48.576;9.180;2023-07-31T03:22:48;96874.81;;;13.48;100.00
11936;BME280;6027;48.576;9.180;2023-07-31T03:25:13;96876.69;;;13.54;100.00
11936;BME280;6027;48.576;9.180;2023-07-31T03:27:39;96877.31;;;13.56;100.00
11936;BME280;6027;48.576;9.180;2023-07-31T03:30:05;96878.09;;;13.50;100.00
11936;BME280;6027;48.576;9.180;2023-07-31T03:32:31;96879.31;;;13.47;100.00
11936;BME280;6027;48.576;9.180;2023-07-31T03:34:57;96886.28;;;13.42;100.00
11936;BME280;6027;48.576;9.180;2023-07-31T03:37:22;96883.41;;;13.37;100.00
11936;BME280;6027;48.576;9.180;2023-07-31T03:39:48;96887.06;;;13.36;100.00
11936;BME280;6027;48.576;9.180;2023-07-31T03:42:13;96882.81;;;13.41;100.00
11936;BME280;6027;48.576;9.180;2023-07-31T03:44:38;96889.97;;;13.41;100.00
11936;BME280;6027;48.576;9.180;2023-07-31T03:47:04;96889.56;;;13.44;100.00
11936;BME280;6027;48.576;9.180;2023-07-31T03:49:30;96887.31;;;13.41;100.00
11936;BME280;6027;48.576;9.180;2023-07-31T03:51:56;96879.94;;;13.43;100.00
11936;BME280;6027;48.576;9.180;2023-07-31T03:54:21;96887.72;;;13.44;100.00
11936;BME280;6027;48.576;9.180;2023-07-31T03:56:46;96888.50;;;13.38;100.00
11936;BME280;6027;48.576;9.180;2023-07-31T03:59:12;96883.00;;;13.40;100.00
11936;BME280;6027;48.576;9.180;2023-07-31T04:01:37;96894.47;;;13.47;100.00
11936;BME280;6027;48.576;9.180;2023-07-31T04:04:03;96882.22;;;13.46;100.00
11936;BME280;6027;48.576;9.180;2023-07-31T04:06:28;96889.50;;;13.31;100.00
11936;BME280;6027;48.576;9.180;2023-07-31T04:08:53;96889.88;;;13.28;100.00
11936;BME280;6027;48.576;9.180;2023-07-31T04:11:19;96897.47;;;13.31;100.00
11936;BME280;6027;48.576;9.180;2023-07-31T04:13:44;96890.75;;;13.35;100.00
11936;BME280;6027;48.576;9.180;2023-07-31T04:16:10;96873.50;;;13.18;100.00
11936;BME280;6027;48.576;9.180;2023-07-31T04:18:35;96894.41;;;13.27;100.00
11936;BME280;6027;48.576;9.180;2023-07-31T04:21:00;96895.00;;;13.29;100.00
11936;BME280;6027;48.576;9.180;2023-07-31T04:23:29;96887.84;;;13.23;100.00
11936;BME280;6027;48.576;9.180;2023-07-31T04:25:55;96879.06;;;13.29;100.00
11936;BME280;6027;48.576;9.180;2023-07-31T04:28:20;96874.34;;;13.25;100.00
11936;BME280;6027;48.576;9.180;2023-07-31T04:30:46;96877.03;;;13.31;100.00
11936;BME280;6027;48.576;9.180;2023-07-31T04:33:12;96881.13;;;13.34;100.00
11936;BME280;6027;48.576;9.180;2023-07-31T04:35:37;96876.66;;;13.41;100.00
11936;BME280;6027;48.576;9.180;2023-07-31T04:38:02;96868.06;;;13.39;100.00
11936;BME280;6027;48.576;9.180;2023-07-31T04:40:28;96865.41;;;13.39;100.00
11936;BME280;6027;48.576;9.180;2023-07-31T04:42:53;96873.19;;;13.47;100.00
11936;BME280;6027;48.576;9.180;2023-07-31T04:45:19;96878.09;;;13.43;100.00
11936;BME280;6027;48.576;9.180;2023-07-31T04:47:44;96882.81;;;13.48;100.00
11936;BME280;6027;48.576;9.180;2023-07-31T04:50:10;96879.13;;;13.42;100.00
11936;BME280;6027;48.576;9.180;2023-07-31T04:52:35;96885.03;;;13.38;100.00
11936;BME280;6027;48.576;9.180;2023-07-31T04:55:01;96882.34;;;13.31;100.00
11936;BME280;6027;48.576;9.180;2023-07-31T04:57:26;96882.34;;;13.25;100.00
11936;BME280;6027;48.576;9.180;2023-07-31T04:59:51;96877.22;;;13.23;100.00
11936;BME280;6027;48.576;9.180;2023-07-31T05:02:17;96883.16;;;13.32;100.00
11936;BME280;6027;48.576;9.180;2023-07-31T05:04:46;96871.09;;;13.29;100.00
11936;BME280;6027;48.576;9.180;2023-07-31T05:07:11;96874.16;;;13.33;100.00
11936;BME280;6027;48.576;9.180;2023-07-31T05:09:37;96872.72;;;13.24;100.00
11936;BME280;6027;48.576;9.180;2023-07-31T05:12:05;96863.31;;;13.28;100.00
11936;BME280;6027;48.576;9.180;2023-07-31T05:14:30;96873.34;;;13.26;100.00
11936;BME280;6027;48.576;9.180;2023-07-31T05:16:56;96867.41;;;13.30;100.00
11936;BME280;6027;48.576;9.180;2023-07-31T05:19:21;96871.91;;;13.30;100.00
11936;BME280;6027;48.576;9.180;2023-07-31T05:21:47;96876.19;;;13.24;100.00
11936;BME280;6027;48.576;9.180;2023-07-31T05:24:12;96878.03;;;13.24;100.00
11936;BME280;6027;48.576;9.180;2023-07-31T05:26:37;96876.00;;;13.26;100.00
11936;BME280;6027;48.576;9.180;2023-07-31T05:29:03;96880.50;;;13.25;100.00
11936;BME280;6027;48.576;9.180;2023-07-31T05:31:29;96870.06;;;13.24;100.00
11936;BME280;6027;48.576;9.180;2023-07-31T05:33:54;96871.50;;;13.26;100.00
11936;BME280;6027;48.576;9.180;2023-07-31T05:36:20;96875.41;;;13.37;100.00
11936;BME280;6027;48.576;9.180;2023-07-31T05:38:45;96879.13;;;13.42;100.00
11936;BME280;6027;48.576;9.180;2023-07-31T05:41:12;96873.84;;;13.56;100.00
11936;BME280;6027;48.576;9.180;2023-07-31T05:43:37;96881.84;;;13.69;100.00
11936;BME280;6027;48.576;9.180;2023-07-31T05:46:03;96873.09;;;13.81;100.00
11936;BME280;6027;48.576;9.180;2023-07-31T05:48:28;96880.03;;;13.89;100.00
11936;BME280;6027;48.576;9.180;2023-07-31T05:50:54;96870.44;;;14.01;100.00
11936;BME280;6027;48.576;9.180;2023-07-31T05:53:19;96884.38;;;14.16;100.00
11936;BME280;6027;48.576;9.180;2023-07-31T05:55:44;96874.13;;;14.33;100.00
11936;BME280;6027;48.576;9.180;2023-07-31T05:58:10;96872.69;;;14.37;100.00
11936;BME280;6027;48.576;9.180;2023-07-31T06:00:35;96877.84;;;14.52;100.00
11936;BME280;6027;48.576;9.180;2023-07-31T06:03:01;96872.50;;;14.59;100.00
11936;BME280;6027;48.576;9.180;2023-07-31T06:05:27;96869.81;;;14.65;100.00
11936;BME280;6027;48.576;9.180;2023-07-31T06:07:54;96871.44;;;14.66;100.00
11936;BME280;6027;48.576;9.180;2023-07-31T06:10:20;96858.53;;;14.70;100.00
11936;BME280;6027;48.576;9.180;2023-07-31T06:12:45;96867.34;;;14.77;100.00
11936;BME280;6027;48.576;9.180;2023-07-31T06:15:11;96859.50;;;14.82;100.00
11936;BME280;6027;48.576;9.180;2023-07-31T06:17:36;96856.84;;;14.89;100.00
11936;BME280;6027;48.576;9.180;2023-07-31T06:20:03;96860.53;;;14.88;100.00
11936;BME280;6027;48.576;9.180;2023-07-31T06:22:30;96865.44;;;14.91;100.00
11936;BME280;6027;48.576;9.180;2023-07-31T06:24:56;96862.56;;;14.99;100.00
11936;BME280;6027;48.576;9.180;2023-07-31T06:27:21;96858.84;;;15.06;100.00
11936;BME280;6027;48.576;9.180;2023-07-31T06:29:46;96860.31;;;14.96;100.00
11936;BME280;6027;48.576;9.180;2023-07-31T06:32:13;96854.16;;;14.95;100.00
11936;BME280;6027;48.576;9.180;2023-07-31T06:34:39;96846.19;;;14.89;100.00
11936;BME280;6027;48.576;9.180;2023-07-31T06:37:05;96856.22;;;14.93;100.00
11936;BME280;6027;48.576;9.180;2023-07-31T06:39:30;96864.84;;;14.95;100.00
11936;BME280;6027;48.576;9.180;2023-07-31T06:41:56;96865.66;;;14.96;100.00
11936;BME280;6027;48.576;9.180;2023-07-31T06:44:21;96873.44;;;14.97;100.00
11936;BME280;6027;48.576;9.180;2023-07-31T06:46:47;96864.56;;;15.16;100.00
11936;BME280;6027;48.576;9.180;2023-07-31T06:49:13;96861.00;;;15.29;100.00
11936;BME280;6027;48.576;9.180;2023-07-31T06:51:40;96856.06;;;15.33;100.00
11936;BME280;6027;48.576;9.180;2023-07-31T06:54:06;96854.97;;;15.47;100.00
11936;BME280;6027;48.576;9.180;2023-07-31T06:56:32;96861.94;;;15.48;100.00
11936;BME280;6027;48.576;9.180;2023-07-31T06:58:57;96859.81;;;15.63;100.00
11936;BME280;6027;48.576;9.180;2023-07-31T07:01:22;96864.09;;;15.71;100.00
11936;BME280;6027;48.576;9.180;2023-07-31T07:03:48;96865.88;;;15.83;100.00
11936;BME280;6027;48.576;9.180;2023-07-31T07:06:16;96870.59;;;15.81;100.00
11936;BME280;6027;48.576;9.180;2023-07-31T07:08:42;96877.06;;;15.99;100.00
11936;BME280;6027;48.576;9.180;2023-07-31T07:11:07;96864.66;;;16.11;100.00
11936;BME280;6027;48.576;9.180;2023-07-31T07:13:33;96868.53;;;16.15;100.00
11936;BME280;6027;48.576;9.180;2023-07-31T07:15:59;96850.66;;;16.15;100.00
11936;BME280;6027;48.576;9.180;2023-07-31T07:18:24;96873.34;;;16.31;100.00
11936;BME280;6027;48.576;9.180;2023-07-31T07:20:51;96869.13;;;16.42;100.00
11936;BME280;6027;48.576;9.180;2023-07-31T07:23:17;96877.25;;;16.53;100.00
11936;BME280;6027;48.576;9.180;2023-07-31T07:25:43;96876.38;;;16.59;100.00
11936;BME280;6027;48.576;9.180;2023-07-31T07:28:09;96867.88;;;16.69;100.00
11936;BME280;6027;48.576;9.180;2023-07-31T07:30:35;96870.41;;;16.64;100.00
11936;BME280;6027;48.576;9.180;2023-07-31T07:33:01;96865.59;;;16.73;100.00
11936;BME280;6027;48.576;9.180;2023-07-31T07:35:26;96867.81;;;16.76;100.00
11936;BME280;6027;48.576;9.180;2023-07-31T07:37:51;96863.66;;;16.80;100.00
11936;BME280;6027;48.576;9.180;2023-07-31T07:40:17;96863.81;;;16.85;100.00
11936;BME280;6027;48.576;9.180;2023-07-31T07:42:42;96859.28;;;16.85;100.00
11936;BME280;6027;48.576;9.180;2023-07-31T07:45:08;96857.44;;;16.86;100.00
11936;BME280;6027;48.576;9.180;2023-07-31T07:47:34;96851.19;;;16.92;100.00
11936;BME280;6027;48.576;9.180;2023-07-31T07:49:59;96855.72;;;16.91;100.00
11936;BME280;6027;48.576;9.180;2023-07-31T07:52:24;96850.66;;;17.02;100.00
11936;BME280;6027;48.576;9.180;2023-07-31T07:54:50;96850.00;;;17.06;100.00
11936;BME280;6027;48.576;9.180;2023-07-31T07:57:15;96845.53;;;17.18;100.00
11936;BME280;6027;48.576;9.180;2023-07-31T07:59:41;96845.69;;;17.23;100.00
11936;BME280;6027;48.576;9.180;2023-07-31T08:02:07;96848.28;;;17.30;100.00
11936;BME280;6027;48.576;9.180;2023-07-31T08:04:32;96845.88;;;17.40;99.60
11936;BME280;6027;48.576;9.180;2023-07-31T08:06:58;96851.16;;;17.47;98.41
11936;BME280;6027;48.576;9.180;2023-07-31T08:09:23;96835.19;;;17.52;97.98
11936;BME280;6027;48.576;9.180;2023-07-31T08:11:49;96836.53;;;17.61;98.82
11936;BME280;6027;48.576;9.180;2023-07-31T08:14:14;96843.91;;;17.66;100.00
11936;BME280;6027;48.576;9.180;2023-07-31T08:16:39;96829.59;;;17.72;99.32
11936;BME280;6027;48.576;9.180;2023-07-31T08:19:05;96833.59;;;17.81;91.15
11936;BME280;6027;48.576;9.180;2023-07-31T08:21:31;96828.03;;;17.82;92.00
11936;BME280;6027;48.576;9.180;2023-07-31T08:23:57;96821.41;;;17.85;89.21
11936;BME280;6027;48.576;9.180;2023-07-31T08:26:22;96826.19;;;17.94;85.81
11936;BME280;6027;48.576;9.180;2023-07-31T08:28:48;96811.28;;;17.99;84.19
11936;BME280;6027;48.576;9.180;2023-07-31T08:31:13;96812.47;;;18.03;87.53
11936;BME280;6027;48.576;9.180;2023-07-31T08:33:39;96804.44;;;18.14;89.44
11936;BME280;6027;48.576;9.180;2023-07-31T08:36:06;96804.78;;;18.29;88.88
11936;BME280;6027;48.576;9.180;2023-07-31T08:38:31;96811.19;;;18.52;85.06
11936;BME280;6027;48.576;9.180;2023-07-31T08:40:57;96812.06;;;18.64;78.77
11936;BME280;6027;48.576;9.180;2023-07-31T08:43:26;96812.28;;;18.62;77.08
11936;BME280;6027;48.576;9.180;2023-07-31T08:45:51;96817.50;;;18.57;74.35
11936;BME280;6027;48.576;9.180;2023-07-31T08:48:19;96811.19;;;18.52;77.94
11936;BME280;6027;48.576;9.180;2023-07-31T08:50:45;96787.88;;;18.52;77.01
11936;BME280;6027;48.576;9.180;2023-07-31T08:53:10;96793.13;;;18.47;76.04
11936;BME280;6027;48.576;9.180;2023-07-31T08:55:36;96791.72;;;18.56;79.21
11936;BME280;6027;48.576;9.180;2023-07-31T08:58:04;96798.97;;;18.68;77.08
11936;BME280;6027;48.576;9.180;2023-07-31T09:00:33;96798.03;;;18.74;75.43
11936;BME280;6027;48.576;9.180;2023-07-31T09:03:06;96786.13;;;18.70;75.41
11936;BME280;6027;48.576;9.180;2023-07-31T09:05:33;96788.25;;;18.68;76.95
11936;BME280;6027;48.576;9.180;2023-07-31T09:08:00;96806.31;;;18.72;76.10
11936;BME280;6027;48.576;9.180;2023-07-31T09:10:27;96793.25;;;18.76;78.67
11936;BME280;6027;48.576;9.180;2023-07-31T09:12:52;96792.63;;;18.97;81.12
11936;BME280;6027;48.576;9.180;2023-07-31T09:15:18;96778.22;;;19.15;76.82
11936;BME280;6027;48.576;9.180;2023-07-31T09:17:44;96787.09;;;19.15;74.83
11936;BME280;6027;48.576;9.180;2023-07-31T09:20:14;96782.41;;;19.22;73.02
11936;BME280;6027;48.576;9.180;2023-07-31T09:22:39;96765.78;;;19.37;77.42
11936;BME280;6027;48.576;9.180;2023-07-31T09:25:25;96779.59;;;19.57;75.34
11936;BME280;6027;48.576;9.180;2023-07-31T09:27:57;96783.84;;;19.42;74.98
11936;BME280;6027;48.576;9.180;2023-07-31T09:30:23;96776.25;;;19.50;77.02
11936;BME280;6027;48.576;9.180;2023-07-31T09:32:51;96776.25;;;19.50;76.88
11936;BME280;6027;48.576;9.180;2023-07-31T09:35:20;96775.81;;;19.42;74.55
11936;BME280;6027;48.576;9.180;2023-07-31T09:37:54;96775.69;;;19.37;77.74
11936;BME280;6027;48.576;9.180;2023-07-31T09:42:57;96773.22;;;19.18;75.46
11936;BME280;6027;48.576;9.180;2023-07-31T09:45:24;96777.53;;;19.19;75.31
11936;BME280;6027;48.576;9.180;2023-07-31T09:47:50;96772.22;;;19.24;76.19
11936;BME280;6027;48.576;9.180;2023-07-31T09:50:16;96762.31;;;19.25;76.04
11936;BME280;6027;48.576;9.180;2023-07-31T09:52:41;96742.16;;;19.22;77.21
11936;BME280;6027;48.576;9.180;2023-07-31T09:55:08;96740.75;;;19.20;76.66
11936;BME280;6027;48.576;9.180;2023-07-31T09:57:34;96745.66;;;19.23;76.76
11936;BME280;6027;48.576;9.180;2023-07-31T10:00:01;96742.00;;;19.29;76.48
11936;BME280;6027;48.576;9.180;2023-07-31T10:02:27;96737.44;;;19.29;75.24
11936;BME280;6027;48.576;9.180;2023-07-31T10:04:56;96733.53;;;19.20;73.14
11936;BME280;6027;48.576;9.180;2023-07-31T10:07:25;96731.56;;;19.16;75.29
11936;BME280;6027;48.576;9.180;2023-07-31T10:09:51;96726.53;;;19.19;75.17
11936;BME280;6027;48.576;9.180;2023-07-31T10:12:19;96719.88;;;19.22;76.76
11936;BME280;6027;48.576;9.180;2023-07-31T10:14:47;96714.34;;;19.28;75.61
11936;BME280;6027;48.576;9.180;2023-07-31T10:17:14;96696.66;;;19.16;73.51
11936;BME280;6027;48.576;9.180;2023-07-31T10:19:41;96697.50;;;19.33;74.71
11936;BME280;6027;48.576;9.180;2023-07-31T10:22:07;96688.53;;;19.56;76.94
11936;BME280;6027;48.576;9.180;2023-07-31T10:24:34;96691.78;;;19.75;73.98
11936;BME280;6027;48.576;9.180;2023-07-31T10:27:01;96704.25;;;19.97;74.87
11936;BME280;6027;48.576;9.180;2023-07-31T10:29:28;96696.50;;;20.01;71.65
11936;BME280;6027;48.576;9.180;2023-07-31T10:31:57;96706.69;;;19.99;70.75
11936;BME280;6027;48.576;9.180;2023-07-31T10:34:23;96701.63;;;20.02;69.81
11936;BME280;6027;48.576;9.180;2023-07-31T10:36:49;96681.19;;;20.01;70.02
11936;BME280;6027;48.576;9.180;2023-07-31T10:39:34;96691.03;;;20.13;71.42
11936;BME280;6027;48.576;9.180;2023-07-31T10:42:13;96687.03;;;20.15;70.40
11936;BME280;6027;48.576;9.180;2023-07-31T10:44:44;96687.38;;;20.19;70.23
11936;BME280;6027;48.576;9.180;2023-07-31T10:47:14;96683.34;;;20.21;68.68
11936;BME280;6027;48.576;9.180;2023-07-31T10:49:40;96670.78;;;20.27;67.75
11936;BME280;6027;48.576;9.180;2023-07-31T10:52:10;96672.16;;;20.46;69.37
11936;BME280;6027;48.576;9.180;2023-07-31T10:54:38;96669.88;;;20.60;68.35
11936;BME280;6027;48.576;9.180;2023-07-31T10:57:19;96665.03;;;20.57;66.66
11936;BME280;6027;48.576;9.180;2023-07-31T10:59:45;96675.91;;;20.67;67.47
11936;BME280;6027;48.576;9.180;2023-07-31T11:02:24;96675.41;;;20.70;62.45
11936;BME280;6027;48.576;9.180;2023-07-31T11:05:10;96666.78;;;20.68;63.77
11936;BME280;6027;48.576;9.180;2023-07-31T11:07:48;96664.75;;;20.80;65.75
11936;BME280;6027;48.576;9.180;2023-07-31T11:10:18;96670.38;;;20.79;63.52
11936;BME280;6027;48.576;9.180;2023-07-31T11:12:45;96658.03;;;20.78;64.54
11936;BME280;6027;48.576;9.180;2023-07-31T11:15:12;96650.94;;;20.98;66.83
11936;BME280;6027;48.576;9.180;2023-07-31T11:17:40;96652.38;;;21.06;62.98
11936;BME280;6027;48.576;9.180;2023-07-31T11:20:06;96644.50;;;20.99;65.15
11936;BME280;6027;48.576;9.180;2023-07-31T11:22:34;96646.50;;;21.09;62.13
11936;BME280;6027;48.576;9.180;2023-07-31T11:25:02;96644.38;;;21.11;64.61
11936;BME280;6027;48.576;9.180;2023-07-31T11:27:28;96652.31;;;21.01;62.57
11936;BME280;6027;48.576;9.180;2023-07-31T11:30:00;96656.31;;;20.93;62.82
11936;BME280;6027;48.576;9.180;2023-07-31T11:32:26;96659.81;;;20.94;62.84
11936;BME280;6027;48.576;9.180;2023-07-31T11:34:55;96656.63;;;20.97;61.52
11936;BME280;6027;48.576;9.180;2023-07-31T11:37:20;96654.84;;;21.08;63.38
11936;BME280;6027;48.576;9.180;2023-07-31T11:39:59;96652.69;;;21.10;62.34
11936;BME280;6027;48.576;9.180;2023-07-31T11:42:26;96638.75;;;21.18;63.45
11936;BME280;6027;48.576;9.180;2023-07-31T11:44:51;96642.22;;;21.35;61.44
11936;BME280;6027;48.576;9.180;2023-07-31T11:47:17;96639.97;;;21.59;61.97
11936;BME280;6027;48.576;9.180;2023-07-31T11:49:43;96633.19;;;21.56;61.97
11936;BME280;6027;48.576;9.180;2023-07-31T11:52:09;96640.75;;;21.54;60.68
11936;BME280;6027;48.576;9.180;2023-07-31T11:54:35;96634.97;;;21.41;61.30
11936;BME280;6027;48.576;9.180;2023-07-31T11:57:01;96636.81;;;21.35;61.20
11936;BME280;6027;48.576;9.180;2023-07-31T11:59:27;96632.19;;;21.30;61.40
11936;BME280;6027;48.576;9.180;2023-07-31T12:01:53;96625.50;;;21.38;64.48
11936;BME280;6027;48.576;9.180;2023-07-31T12:04:19;96627.25;;;21.22;62.52
11936;BME280;6027;48.576;9.180;2023-07-31T12:06:46;96620.97;;;21.12;64.61
11936;BME280;6027;48.576;9.180;2023-07-31T12:09:14;96619.34;;;21.11;65.17
11936;BME280;6027;48.576;9.180;2023-07-31T12:11:47;96604.94;;;21.00;65.51
11936;BME280;6027;48.576;9.180;2023-07-31T12:14:24;96617.66;;;21.04;65.67
11936;BME280;6027;48.576;9.180;2023-07-31T12:17:08;96608.94;;;20.92;68.10
11936;BME280;6027;48.576;9.180;2023-07-31T12:19:36;96614.69;;;20.79;68.17
11936;BME280;6027;48.576;9.180;2023-07-31T12:22:11;96609.41;;;20.62;72.08
11936;BME280;6027;48.576;9.180;2023-07-31T12:24:39;96593.25;;;20.62;72.80
11936;BME280;6027;48.576;9.180;2023-07-31T12:27:11;96595.94;;;20.62;72.08
11936;BME280;6027;48.576;9.180;2023-07-31T12:29:38;96588.69;;;20.63;78.13
11936;BME280;6027;48.576;9.180;2023-07-31T12:32:05;96590.16;;;20.49;76.20
11936;BME280;6027;48.576;9.180;2023-07-31T12:34:43;96592.03;;;20.48;76.31
11936;BME280;6027;48.576;9.180;2023-07-31T12:37:08;96574.63;;;20.34;76.45
11936;BME280;6027;48.576;9.180;2023-07-31T12:39:34;96575.13;;;20.31;76.99
11936;BME280;6027;48.576;9.180;2023-07-31T12:41:59;96573.44;;;20.25;76.50
11936;BME280;6027;48.576;9.180;2023-07-31T12:44:25;96567.56;;;20.28;75.49
11936;BME280;6027;48.576;9.180;2023-07-31T12:46:50;96568.56;;;20.22;76.77
11936;BME280;6027;48.576;9.180;2023-07-31T12:49:15;96567.97;;;20.37;77.82
11936;BME280;6027;48.576;9.180;2023-07-31T12:51:41;96568.13;;;20.30;76.87
11936;BME280;6027;48.576;9.180;2023-07-31T12:54:06;96563.69;;;20.41;79.87
11936;BME280;6027;48.576;9.180;2023-07-31T12:56:32;96558.75;;;20.54;80.40
11936;BME280;6027;48.576;9.180;2023-07-31T12:58:57;96551.59;;;20.65;76.03
11936;BME280;6027;48.576;9.180;2023-07-31T13:01:23;96543.03;;;20.68;76.83
11936;BME280;6027;48.576;9.180;2023-07-31T13:03:48;96536.38;;;20.76;75.23
11936;BME280;6027;48.576;9.180;2023-07-31T13:06:14;96531.59;;;20.83;74.06
11936;BME280;6027;48.576;9.180;2023-07-31T13:08:39;96517.00;;;20.79;73.26
11936;BME280;6027;48.576;9.180;2023-07-31T13:11:04;96513.31;;;20.85;74.47